sensor_id;sensor_type;location;lat;lon;timestamp;P1;durP1;ratioP1;P2;durP2;ratioP2
25049;SDS011;13046;49.814;9.918;2023-03-01T00:02:07;33.05;;;20.80;;
25049;SDS011;13046;49.814;9.918;2023-03-01T00:04:33;36.85;;;21.80;;
25049;SDS011;13046;49.814;9.918;2023-03-01T00:07:00;37.88;;;24.10;;
25049;SDS011;13046;49.814;9.918;2023-03-01T00:09:26;35.80;;;23.10;;
25049;SDS011;13046;49.814;9.918;2023-03-01T00:11:52;33.80;;;21.98;;
25049;SDS011;13046;49.814;9.918;2023-03-01T00:14:18;32.15;;;20.83;;
25049;SDS011;13046;49.814;9.918;2023-03-01T00:16:45;29.38;;;20.73;;
25049;SDS011;13046;49.814;9.918;2023-03-01T00:19:12;39.65;;;21.48;;
25049;SDS011;13046;49.814;9.918;2023-03-01T00:21:38;36.92;;;22.25;;
25049;SDS011;13046;49.814;9.918;2023-03-01T00:24:05;29.83;;;20.42;;
25049;SDS011;13046;49.814;9.918;2023-03-01T00:26:31;32.03;;;20.65;;
25049;SDS011;13046;49.814;9.918;2023-03-01T00:28:57;30.65;;;19.98;;
25049;SDS011;13046;49.814;9.918;2023-03-01T00:31:25;34.63;;;22.05;;
25049;SDS011;13046;49.814;9.918;2023-03-01T00:33:55;36.28;;;22.70;;
25049;SDS011;13046;49.814;9.918;2023-03-01T00:36:23;32.38;;;21.33;;
25049;SDS011;13046;49.814;9.918;2023-03-01T00:38:49;33.13;;;22.13;;
25049;SDS011;13046;49.814;9.918;2023-03-01T00:41:16;38.42;;;24.40;;
25049;SDS011;13046;49.814;9.918;2023-03-01T00:43:42;35.03;;;21.27;;
25049;SDS011;13046;49.814;9.918;2023-03-01T00:46:13;34.83;;;22.23;;
25049;SDS011;13046;49.814;9.918;2023-03-01T00:48:39;33.30;;;19.50;;
25049;SDS011;13046;49.814;9.918;2023-03-01T00:51:10;41.53;;;24.25;;
25049;SDS011;13046;49.814;9.918;2023-03-01T00:53:36;37.80;;;24.30;;
25049;SDS011;13046;49.814;9.918;2023-03-01T00:56:03;49.65;;;30.25;;
25049;SDS011;13046;49.814;9.918;2023-03-01T00:58:30;54.15;;;34.15;;
25049;SDS011;13046;49.814;9.918;2023-03-01T01:00:56;47.88;;;29.42;;
25049;SDS011;13046;49.814;9.918;2023-03-01T01:03:22;37.67;;;24.42;;
25049;SDS011;13046;49.814;9.918;2023-03-01T01:05:50;38.70;;;23.58;;
25049;SDS011;13046;49.814;9.918;2023-03-01T01:08:16;35.30;;;22.60;;
25049;SDS011;13046;49.814;9.918;2023-03-01T01:10:43;38.00;;;24.15;;
25049;SDS011;13046;49.814;9.918;2023-03-01T01:13:09;36.88;;;24.15;;
25049;SDS011;13046;49.814;9.918;2023-03-01T01:15:36;64.40;;;40.45;;
25049;SDS011;13046;49.814;9.918;2023-03-01T01:18:02;43.70;;;26.33;;
25049;SDS011;13046;49.814;9.918;2023-03-01T01:20:28;51.20;;;30.60;;
25049;SDS011;13046;49.814;9.918;2023-03-01T01:22:54;50.95;;;34.17;;
25049;SDS011;13046;49.814;9.918;2023-03-01T01:25:20;37.72;;;23.15;;
25049;SDS011;13046;49.814;9.918;2023-03-01T01:27:46;36.55;;;22.80;;
25049;SDS011;13046;49.814;9.918;2023-03-01T01:30:12;33.70;;;23.88;;
25049;SDS011;13046;49.814;9.918;2023-03-01T01:32:38;34.03;;;21.40;;
25049;SDS011;13046;49.814;9.918;2023-03-01T01:35:05;36.00;;;22.42;;
25049;SDS011;13046;49.814;9.918;2023-03-01T01:37:31;35.38;;;21.73;;
25049;SDS011;13046;49.814;9.918;2023-03-01T01:39:57;43.05;;;27.27;;
25049;SDS011;13046;49.814;9.918;2023-03-01T01:42:24;36.25;;;22.58;;
25049;SDS011;13046;49.814;9.918;2023-03-01T01:47:35;33.53;;;21.13;;
25049;SDS011;13046;49.814;9.918;2023-03-01T01:50:01;38.90;;;23.30;;
25049;SDS011;13046;49.814;9.918;2023-03-01T01:52:31;38.13;;;23.83;;
25049;SDS011;13046;49.814;9.918;2023-03-01T01:55:00;35.40;;;23.45;;
25049;SDS011;13046;49.814;9.918;2023-03-01T01:57:30;33.80;;;21.70;;
25049;SDS011;13046;49.814;9.918;2023-03-01T01:59:59;44.13;;;23.65;;
25049;SDS011;13046;49.814;9.918;2023-03-01T02:02:26;35.72;;;23.23;;
25049;SDS011;13046;49.814;9.918;2023-03-01T02:04:53;41.80;;;24.15;;
25049;SDS011;13046;49.814;9.918;2023-03-01T02:07:23;36.08;;;22.30;;
25049;SDS011;13046;49.814;9.918;2023-03-01T02:09:50;37.80;;;23.50;;
25049;SDS011;13046;49.814;9.918;2023-03-01T02:12:18;40.85;;;23.45;;
25049;SDS011;13046;49.814;9.918;2023-03-01T02:14:45;35.42;;;23.77;;
25049;SDS011;13046;49.814;9.918;2023-03-01T02:17:11;34.88;;;23.05;;
25049;SDS011;13046;49.814;9.918;2023-03-01T02:22:24;36.95;;;22.95;;
25049;SDS011;13046;49.814;9.918;2023-03-01T02:25:01;34.47;;;21.42;;
25049;SDS011;13046;49.814;9.918;2023-03-01T02:27:33;38.17;;;23.70;;
25049;SDS011;13046;49.814;9.918;2023-03-01T02:30:01;40.10;;;22.63;;
25049;SDS011;13046;49.814;9.918;2023-03-01T02:32:27;37.28;;;22.25;;
25049;SDS011;13046;49.814;9.918;2023-03-01T02:34:55;34.90;;;22.35;;
25049;SDS011;13046;49.814;9.918;2023-03-01T02:37:21;37.95;;;24.40;;
25049;SDS011;13046;49.814;9.918;2023-03-01T02:39:59;38.42;;;23.52;;
25049;SDS011;13046;49.814;9.918;2023-03-01T02:42:31;35.53;;;21.92;;
25049;SDS011;13046;49.814;9.918;2023-03-01T02:44:58;38.05;;;23.42;;
25049;SDS011;13046;49.814;9.918;2023-03-01T02:47:25;36.72;;;22.17;;
25049;SDS011;13046;49.814;9.918;2023-03-01T02:49:50;36.55;;;23.02;;
25049;SDS011;13046;49.814;9.918;2023-03-01T02:55:12;41.83;;;25.63;;
25049;SDS011;13046;49.814;9.918;2023-03-01T02:57:39;39.78;;;23.88;;
25049;SDS011;13046;49.814;9.918;2023-03-01T03:00:11;35.85;;;22.60;;
25049;SDS011;13046;49.814;9.918;2023-03-01T03:02:47;37.58;;;24.00;;
25049;SDS011;13046;49.814;9.918;2023-03-01T03:05:19;37.05;;;21.77;;
25049;SDS011;13046;49.814;9.918;2023-03-01T03:07:51;41.80;;;24.23;;
25049;SDS011;13046;49.814;9.918;2023-03-01T03:10:18;39.28;;;23.02;;
25049;SDS011;13046;49.814;9.918;2023-03-01T03:12:57;34.67;;;21.88;;
25049;SDS011;13046;49.814;9.918;2023-03-01T03:15:24;40.63;;;23.60;;
25049;SDS011;13046;49.814;9.918;2023-03-01T03:17:51;32.88;;;21.27;;
25049;SDS011;13046;49.814;9.918;2023-03-01T03:20:18;34.53;;;23.08;;
25049;SDS011;13046;49.814;9.918;2023-03-01T03:22:45;32.20;;;20.55;;
25049;SDS011;13046;49.814;9.918;2023-03-01T03:25:11;38.90;;;23.88;;
25049;SDS011;13046;49.814;9.918;2023-03-01T03:27:37;39.53;;;24.30;;
25049;SDS011;13046;49.814;9.918;2023-03-01T03:30:04;45.30;;;23.92;;
25049;SDS011;13046;49.814;9.918;2023-03-01T03:32:34;42.63;;;24.67;;
25049;SDS011;13046;49.814;9.918;2023-03-01T03:35:01;42.25;;;24.50;;
25049;SDS011;13046;49.814;9.918;2023-03-01T03:37:27;38.83;;;22.52;;
25049;SDS011;13046;49.814;9.918;2023-03-01T03:40:12;37.80;;;22.92;;
25049;SDS011;13046;49.814;9.918;2023-03-01T03:42:40;41.90;;;24.55;;
25049;SDS011;13046;49.814;9.918;2023-03-01T03:45:06;40.50;;;24.88;;
25049;SDS011;13046;49.814;9.918;2023-03-01T03:47:32;35.35;;;24.25;;
25049;SDS011;13046;49.814;9.918;2023-03-01T03:49:58;35.28;;;23.05;;
25049;SDS011;13046;49.814;9.918;2023-03-01T03:52:24;38.55;;;22.70;;
25049;SDS011;13046;49.814;9.918;2023-03-01T03:54:51;40.70;;;24.02;;
25049;SDS011;13046;49.814;9.918;2023-03-01T03:57:17;42.78;;;24.08;;
25049;SDS011;13046;49.814;9.918;2023-03-01T03:59:43;34.88;;;22.40;;
25049;SDS011;13046;49.814;9.918;2023-03-01T04:02:09;37.45;;;23.23;;
25049;SDS011;13046;49.814;9.918;2023-03-01T04:04:35;42.20;;;22.70;;
25049;SDS011;13046;49.814;9.918;2023-03-01T04:07:01;38.85;;;23.10;;
25049;SDS011;13046;49.814;9.918;2023-03-01T04:09:26;31.48;;;21.33;;
25049;SDS011;13046;49.814;9.918;2023-03-01T04:11:55;36.45;;;22.20;;
25049;SDS011;13046;49.814;9.918;2023-03-01T04:14:21;37.35;;;24.25;;
25049;SDS011;13046;49.814;9.918;2023-03-01T04:16:47;36.47;;;21.05;;
25049;SDS011;13046;49.814;9.918;2023-03-01T04:19:13;39.10;;;24.33;;
25049;SDS011;13046;49.814;9.918;2023-03-01T04:21:40;39.60;;;23.45;;
25049;SDS011;13046;49.814;9.918;2023-03-01T04:24:06;37.80;;;24.00;;
25049;SDS011;13046;49.814;9.918;2023-03-01T04:26:32;40.25;;;22.48;;
25049;SDS011;13046;49.814;9.918;2023-03-01T04:28:58;37.25;;;23.50;;
25049;SDS011;13046;49.814;9.918;2023-03-01T04:31:24;34.35;;;23.13;;
25049;SDS011;13046;49.814;9.918;2023-03-01T04:33:54;38.22;;;23.20;;
25049;SDS011;13046;49.814;9.918;2023-03-01T04:36:22;36.55;;;22.30;;
25049;SDS011;13046;49.814;9.918;2023-03-01T04:38:48;32.80;;;20.70;;
25049;SDS011;13046;49.814;9.918;2023-03-01T04:41:15;33.13;;;21.50;;
25049;SDS011;13046;49.814;9.918;2023-03-01T04:43:41;35.75;;;22.40;;
25049;SDS011;13046;49.814;9.918;2023-03-01T04:46:08;40.22;;;22.67;;
25049;SDS011;13046;49.814;9.918;2023-03-01T04:48:35;37.90;;;22.88;;
25049;SDS011;13046;49.814;9.918;2023-03-01T04:51:02;39.25;;;23.83;;
25049;SDS011;13046;49.814;9.918;2023-03-01T04:53:28;40.63;;;21.67;;
25049;SDS011;13046;49.814;9.918;2023-03-01T04:55:55;38.17;;;24.25;;
25049;SDS011;13046;49.814;9.918;2023-03-01T04:58:22;40.30;;;23.58;;
25049;SDS011;13046;49.814;9.918;2023-03-01T05:00:48;34.38;;;22.67;;
25049;SDS011;13046;49.814;9.918;2023-03-01T05:03:14;35.72;;;22.45;;
25049;SDS011;13046;49.814;9.918;2023-03-01T05:05:43;37.05;;;22.92;;
25049;SDS011;13046;49.814;9.918;2023-03-01T05:08:09;38.78;;;22.48;;
25049;SDS011;13046;49.814;9.918;2023-03-01T05:10:50;37.67;;;23.10;;
25049;SDS011;13046;49.814;9.918;2023-03-01T05:13:16;39.08;;;23.38;;
25049;SDS011;13046;49.814;9.918;2023-03-01T05:15:56;35.38;;;22.65;;
25049;SDS011;13046;49.814;9.918;2023-03-01T05:18:23;39.08;;;24.00;;
25049;SDS011;13046;49.814;9.918;2023-03-01T05:20:54;38.28;;;21.80;;
25049;SDS011;13046;49.814;9.918;2023-03-01T05:23:23;36.53;;;22.30;;
25049;SDS011;13046;49.814;9.918;2023-03-01T05:25:49;35.53;;;23.50;;
25049;SDS011;13046;49.814;9.918;2023-03-01T05:28:17;36.38;;;24.00;;
25049;SDS011;13046;49.814;9.918;2023-03-01T05:30:43;36.45;;;23.02;;
25049;SDS011;13046;49.814;9.918;2023-03-01T05:33:09;39.40;;;24.00;;
25049;SDS011;13046;49.814;9.918;2023-03-01T05:35:41;43.30;;;23.13;;
25049;SDS011;13046;49.814;9.918;2023-03-01T05:38:08;39.22;;;24.20;;
25049;SDS011;13046;49.814;9.918;2023-03-01T05:40:38;35.90;;;23.58;;
25049;SDS011;13046;49.814;9.918;2023-03-01T05:43:05;38.20;;;23.80;;
25049;SDS011;13046;49.814;9.918;2023-03-01T05:45:31;39.30;;;25.25;;
25049;SDS011;13046;49.814;9.918;2023-03-01T05:47:58;40.65;;;23.10;;
25049;SDS011;13046;49.814;9.918;2023-03-01T05:50:25;38.10;;;22.25;;
25049;SDS011;13046;49.814;9.918;2023-03-01T05:52:56;44.25;;;25.50;;
25049;SDS011;13046;49.814;9.918;2023-03-01T05:55:22;39.88;;;23.92;;
25049;SDS011;13046;49.814;9.918;2023-03-01T05:57:48;38.13;;;23.48;;
25049;SDS011;13046;49.814;9.918;2023-03-01T06:00:18;37.83;;;22.23;;
25049;SDS011;13046;49.814;9.918;2023-03-01T06:02:44;41.80;;;23.65;;
25049;SDS011;13046;49.814;9.918;2023-03-01T06:05:11;41.13;;;23.50;;
25049;SDS011;13046;49.814;9.918;2023-03-01T06:07:37;44.30;;;24.92;;
25049;SDS011;13046;49.814;9.918;2023-03-01T06:10:04;38.75;;;24.02;;
25049;SDS011;13046;49.814;9.918;2023-03-01T06:12:31;36.70;;;23.45;;
25049;SDS011;13046;49.814;9.918;2023-03-01T06:14:57;36.67;;;23.00;;
25049;SDS011;13046;49.814;9.918;2023-03-01T06:17:24;38.60;;;23.05;;
25049;SDS011;13046;49.814;9.918;2023-03-01T06:19:50;36.60;;;22.13;;
25049;SDS011;13046;49.814;9.918;2023-03-01T06:22:16;40.03;;;22.88;;
25049;SDS011;13046;49.814;9.918;2023-03-01T06:24:42;40.05;;;25.10;;
25049;SDS011;13046;49.814;9.918;2023-03-01T06:27:08;41.45;;;25.92;;
25049;SDS011;13046;49.814;9.918;2023-03-01T06:29:34;39.13;;;24.02;;
25049;SDS011;13046;49.814;9.918;2023-03-01T06:32:00;39.03;;;25.30;;
25049;SDS011;13046;49.814;9.918;2023-03-01T06:34:26;43.42;;;23.92;;
25049;SDS011;13046;49.814;9.918;2023-03-01T06:36:52;39.78;;;24.13;;
25049;SDS011;13046;49.814;9.918;2023-03-01T06:39:18;38.58;;;25.65;;
25049;SDS011;13046;49.814;9.918;2023-03-01T06:41:44;40.42;;;24.83;;
25049;SDS011;13046;49.814;9.918;2023-03-01T06:44:10;40.00;;;26.33;;
25049;SDS011;13046;49.814;9.918;2023-03-01T06:46:36;41.60;;;24.50;;
25049;SDS011;13046;49.814;9.918;2023-03-01T06:49:02;35.63;;;24.08;;
25049;SDS011;13046;49.814;9.918;2023-03-01T06:51:32;43.53;;;27.35;;
25049;SDS011;13046;49.814;9.918;2023-03-01T06:53:58;35.97;;;23.83;;
25049;SDS011;13046;49.814;9.918;2023-03-01T06:56:24;39.53;;;24.17;;
25049;SDS011;13046;49.814;9.918;2023-03-01T06:58:50;36.95;;;25.20;;
25049;SDS011;13046;49.814;9.918;2023-03-01T07:01:16;43.10;;;25.27;;
25049;SDS011;13046;49.814;9.918;2023-03-01T07:03:41;41.47;;;24.10;;
25049;SDS011;13046;49.814;9.918;2023-03-01T07:06:09;40.05;;;26.02;;
25049;SDS011;13046;49.814;9.918;2023-03-01T07:08:35;43.88;;;26.50;;
25049;SDS011;13046;49.814;9.918;2023-03-01T07:11:01;46.25;;;25.65;;
25049;SDS011;13046;49.814;9.918;2023-03-01T07:13:28;37.75;;;24.40;;
25049;SDS011;13046;49.814;9.918;2023-03-01T07:15:54;41.97;;;25.17;;
25049;SDS011;13046;49.814;9.918;2023-03-01T07:18:20;40.35;;;25.35;;
25049;SDS011;13046;49.814;9.918;2023-03-01T07:20:46;40.88;;;25.95;;
25049;SDS011;13046;49.814;9.918;2023-03-01T07:23:12;43.00;;;24.98;;
25049;SDS011;13046;49.814;9.918;2023-03-01T07:25:38;40.80;;;24.88;;
25049;SDS011;13046;49.814;9.918;2023-03-01T07:28:05;44.90;;;24.00;;
25049;SDS011;13046;49.814;9.918;2023-03-01T07:30:31;37.95;;;24.00;;
25049;SDS011;13046;49.814;9.918;2023-03-01T07:32:57;49.25;;;26.83;;
25049;SDS011;13046;49.814;9.918;2023-03-01T07:35:25;40.15;;;24.55;;
25049;SDS011;13046;49.814;9.918;2023-03-01T07:37:51;42.60;;;24.92;;
25049;SDS011;13046;49.814;9.918;2023-03-01T07:40:18;39.60;;;24.65;;
25049;SDS011;13046;49.814;9.918;2023-03-01T07:42:44;41.30;;;24.77;;
25049;SDS011;13046;49.814;9.918;2023-03-01T07:45:10;38.88;;;24.38;;
25049;SDS011;13046;49.814;9.918;2023-03-01T07:47:38;38.65;;;24.63;;
25049;SDS011;13046;49.814;9.918;2023-03-01T07:50:04;42.10;;;27.20;;
25049;SDS011;13046;49.814;9.918;2023-03-01T07:52:31;39.35;;;25.23;;
25049;SDS011;13046;49.814;9.918;2023-03-01T07:54:57;42.92;;;25.65;;
25049;SDS011;13046;49.814;9.918;2023-03-01T07:57:23;41.85;;;25.13;;
25049;SDS011;13046;49.814;9.918;2023-03-01T07:59:49;42.88;;;24.45;;
25049;SDS011;13046;49.814;9.918;2023-03-01T08:02:15;38.05;;;24.65;;
25049;SDS011;13046;49.814;9.918;2023-03-01T08:04:41;42.55;;;26.90;;
25049;SDS011;13046;49.814;9.918;2023-03-01T08:07:07;40.13;;;25.25;;
25049;SDS011;13046;49.814;9.918;2023-03-01T08:09:34;45.15;;;24.90;;
25049;SDS011;13046;49.814;9.918;2023-03-01T08:12:02;41.33;;;24.60;;
25049;SDS011;13046;49.814;9.918;2023-03-01T08:14:29;40.38;;;24.75;;
25049;SDS011;13046;49.814;9.918;2023-03-01T08:16:55;40.28;;;25.83;;
25049;SDS011;13046;49.814;9.918;2023-03-01T08:19:21;41.78;;;28.10;;
25049;SDS011;13046;49.814;9.918;2023-03-01T08:21:47;40.10;;;23.85;;
25049;SDS011;13046;49.814;9.918;2023-03-01T08:24:13;40.85;;;25.58;;
25049;SDS011;13046;49.814;9.918;2023-03-01T08:26:39;45.25;;;26.63;;
25049;SDS011;13046;49.814;9.918;2023-03-01T08:29:05;36.85;;;26.05;;
25049;SDS011;13046;49.814;9.918;2023-03-01T08:31:32;37.10;;;26.10;;
25049;SDS011;13046;49.814;9.918;2023-03-01T08:34:04;38.08;;;25.02;;
25049;SDS011;13046;49.814;9.918;2023-03-01T08:36:33;41.90;;;26.10;;
25049;SDS011;13046;49.814;9.918;2023-03-01T08:39:02;38.15;;;25.70;;
25049;SDS011;13046;49.814;9.918;2023-03-01T08:41:28;36.70;;;25.05;;
25049;SDS011;13046;49.814;9.918;2023-03-01T08:43:54;35.47;;;26.17;;
25049;SDS011;13046;49.814;9.918;2023-03-01T08:46:27;38.42;;;26.13;;
25049;SDS011;13046;49.814;9.918;2023-03-01T08:48:54;38.97;;;25.08;;
25049;SDS011;13046;49.814;9.918;2023-03-01T08:51:21;39.50;;;25.50;;
25049;SDS011;13046;49.814;9.918;2023-03-01T08:53:47;37.97;;;25.67;;
25049;SDS011;13046;49.814;9.918;2023-03-01T08:56:14;42.70;;;26.48;;
25049;SDS011;13046;49.814;9.918;2023-03-01T08:58:43;36.72;;;25.17;;
25049;SDS011;13046;49.814;9.918;2023-03-01T09:01:14;38.38;;;25.63;;
25049;SDS011;13046;49.814;9.918;2023-03-01T09:03:41;36.95;;;24.92;;
25049;SDS011;13046;49.814;9.918;2023-03-01T09:06:08;39.60;;;25.30;;
25049;SDS011;13046;49.814;9.918;2023-03-01T09:08:35;42.22;;;25.60;;
25049;SDS011;13046;49.814;9.918;2023-03-01T09:11:04;38.80;;;26.42;;
25049;SDS011;13046;49.814;9.918;2023-03-01T09:13:31;39.88;;;25.08;;
25049;SDS011;13046;49.814;9.918;2023-03-01T09:15:57;39.00;;;26.08;;
25049;SDS011;13046;49.814;9.918;2023-03-01T09:18:23;37.28;;;24.15;;
25049;SDS011;13046;49.814;9.918;2023-03-01T09:20:49;39.38;;;26.02;;
25049;SDS011;13046;49.814;9.918;2023-03-01T09:23:15;44.22;;;25.80;;
25049;SDS011;13046;49.814;9.918;2023-03-01T09:25:40;38.95;;;26.80;;
25049;SDS011;13046;49.814;9.918;2023-03-01T09:28:06;40.90;;;25.02;;
25049;SDS011;13046;49.814;9.918;2023-03-01T09:30:32;43.33;;;25.48;;
25049;SDS011;13046;49.814;9.918;2023-03-01T09:32:58;37.58;;;25.08;;
25049;SDS011;13046;49.814;9.918;2023-03-01T09:35:23;34.88;;;24.27;;
25049;SDS011;13046;49.814;9.918;2023-03-01T09:37:50;36.58;;;24.73;;
25049;SDS011;13046;49.814;9.918;2023-03-01T09:40:20;39.90;;;27.98;;
25049;SDS011;13046;49.814;9.918;2023-03-01T09:42:57;40.25;;;26.90;;
25049;SDS011;13046;49.814;9.918;2023-03-01T09:45:30;43.88;;;29.75;;
25049;SDS011;13046;49.814;9.918;2023-03-01T09:48:00;38.90;;;27.30;;
25049;SDS011;13046;49.814;9.918;2023-03-01T09:50:28;44.65;;;30.35;;
25049;SDS011;13046;49.814;9.918;2023-03-01T09:53:01;38.72;;;26.17;;
25049;SDS011;13046;49.814;9.918;2023-03-01T09:55:34;40.22;;;26.83;;
25049;SDS011;13046;49.814;9.918;2023-03-01T10:00:57;46.85;;;28.90;;
25049;SDS011;13046;49.814;9.918;2023-03-01T10:08:51;36.63;;;24.48;;
25049;SDS011;13046;49.814;9.918;2023-03-01T10:11:26;34.63;;;25.73;;
25049;SDS011;13046;49.814;9.918;2023-03-01T10:16:34;33.70;;;27.40;;
25049;SDS011;13046;49.814;9.918;2023-03-01T10:19:14;33.22;;;23.90;;
25049;SDS011;13046;49.814;9.918;2023-03-01T10:21:49;36.58;;;24.65;;
25049;SDS011;13046;49.814;9.918;2023-03-01T10:24:17;36.90;;;27.08;;
25049;SDS011;13046;49.814;9.918;2023-03-01T10:29:23;37.58;;;25.95;;
25049;SDS011;13046;49.814;9.918;2023-03-01T10:31:54;38.33;;;24.92;;
25049;SDS011;13046;49.814;9.918;2023-03-01T10:34:29;37.45;;;26.27;;
25049;SDS011;13046;49.814;9.918;2023-03-01T10:37:11;36.10;;;26.95;;
25049;SDS011;13046;49.814;9.918;2023-03-01T10:42:39;37.58;;;25.90;;
25049;SDS011;13046;49.814;9.918;2023-03-01T10:48:02;39.13;;;27.67;;
25049;SDS011;13046;49.814;9.918;2023-03-01T10:50:29;34.60;;;24.52;;
25049;SDS011;13046;49.814;9.918;2023-03-01T10:52:58;38.90;;;25.77;;
25049;SDS011;13046;49.814;9.918;2023-03-01T10:55:36;34.95;;;26.08;;
25049;SDS011;13046;49.814;9.918;2023-03-01T10:58:07;33.03;;;24.50;;
25049;SDS011;13046;49.814;9.918;2023-03-01T11:00:48;33.63;;;24.52;;
25049;SDS011;13046;49.814;9.918;2023-03-01T11:03:15;34.30;;;24.55;;
25049;SDS011;13046;49.814;9.918;2023-03-01T11:16:32;39.10;;;26.30;;
25049;SDS011;13046;49.814;9.918;2023-03-01T11:21:36;30.80;;;25.83;;
25049;SDS011;13046;49.814;9.918;2023-03-01T11:24:06;34.40;;;23.08;;
25049;SDS011;13046;49.814;9.918;2023-03-01T11:26:38;33.60;;;23.50;;
25049;SDS011;13046;49.814;9.918;2023-03-01T11:29:11;36.95;;;25.30;;
25049;SDS011;13046;49.814;9.918;2023-03-01T11:31:43;32.53;;;22.70;;
25049;SDS011;13046;49.814;9.918;2023-03-01T11:34:12;34.30;;;23.92;;
25049;SDS011;13046;49.814;9.918;2023-03-01T11:36:49;33.17;;;23.83;;
25049;SDS011;13046;49.814;9.918;2023-03-01T11:39:46;32.47;;;24.02;;
25049;SDS011;13046;49.814;9.918;2023-03-01T11:42:20;34.67;;;24.13;;
25049;SDS011;13046;49.814;9.918;2023-03-01T11:44:54;34.72;;;24.15;;
25049;SDS011;13046;49.814;9.918;2023-03-01T11:47:43;32.03;;;24.75;;
25049;SDS011;13046;49.814;9.918;2023-03-01T11:50:24;31.23;;;23.65;;
25049;SDS011;13046;49.814;9.918;2023-03-01T12:01:00;35.45;;;25.23;;
25049;SDS011;13046;49.814;9.918;2023-03-01T12:03:46;42.33;;;28.92;;
25049;SDS011;13046;49.814;9.918;2023-03-01T12:12:29;32.05;;;22.67;;
25049;SDS011;13046;49.814;9.918;2023-03-01T12:32:41;30.58;;;20.92;;
25049;SDS011;13046;49.814;9.918;2023-03-01T12:38:33;35.65;;;22.52;;
25049;SDS011;13046;49.814;9.918;2023-03-01T12:41:26;32.08;;;23.15;;
25049;SDS011;13046;49.814;9.918;2023-03-01T12:44:15;30.67;;;22.55;;
25049;SDS011;13046;49.814;9.918;2023-03-01T12:52:06;29.65;;;22.23;;
25049;SDS011;13046;49.814;9.918;2023-03-01T12:54:38;31.10;;;22.80;;
25049;SDS011;13046;49.814;9.918;2023-03-01T13:08:44;31.77;;;20.90;;
25049;SDS011;13046;49.814;9.918;2023-03-01T13:11:27;78.15;;;44.38;;
25049;SDS011;13046;49.814;9.918;2023-03-01T13:14:08;45.10;;;30.25;;
25049;SDS011;13046;49.814;9.918;2023-03-01T13:16:53;29.73;;;21.77;;
25049;SDS011;13046;49.814;9.918;2023-03-01T13:19:27;31.17;;;23.88;;
25049;SDS011;13046;49.814;9.918;2023-03-01T13:22:01;32.83;;;23.67;;
25049;SDS011;13046;49.814;9.918;2023-03-01T13:25:02;29.00;;;21.38;;
25049;SDS011;13046;49.814;9.918;2023-03-01T13:27:38;28.08;;;20.30;;
25049;SDS011;13046;49.814;9.918;2023-03-01T13:30:04;32.08;;;21.92;;
25049;SDS011;13046;49.814;9.918;2023-03-01T13:32:50;29.67;;;23.45;;
25049;SDS011;13046;49.814;9.918;2023-03-01T13:37:44;33.15;;;21.98;;
25049;SDS011;13046;49.814;9.918;2023-03-01T13:42:46;30.50;;;22.35;;
25049;SDS011;13046;49.814;9.918;2023-03-01T13:47:49;34.97;;;21.25;;
25049;SDS011;13046;49.814;9.918;2023-03-01T13:50:32;29.95;;;21.73;;
25049;SDS011;13046;49.814;9.918;2023-03-01T13:53:03;26.92;;;21.50;;
25049;SDS011;13046;49.814;9.918;2023-03-01T14:01:28;28.90;;;20.92;;
25049;SDS011;13046;49.814;9.918;2023-03-01T14:03:55;29.05;;;19.50;;
25049;SDS011;13046;49.814;9.918;2023-03-01T14:06:25;29.23;;;20.63;;
25049;SDS011;13046;49.814;9.918;2023-03-01T14:14:48;26.88;;;20.23;;
25049;SDS011;13046;49.814;9.918;2023-03-01T14:20:20;26.67;;;20.10;;
25049;SDS011;13046;49.814;9.918;2023-03-01T14:22:58;24.15;;;19.02;;
25049;SDS011;13046;49.814;9.918;2023-03-01T14:25:34;23.98;;;19.15;;
25049;SDS011;13046;49.814;9.918;2023-03-01T14:28:12;24.48;;;19.95;;
25049;SDS011;13046;49.814;9.918;2023-03-01T14:30:56;26.55;;;18.95;;
25049;SDS011;13046;49.814;9.918;2023-03-01T14:38:29;26.15;;;20.77;;
25049;SDS011;13046;49.814;9.918;2023-03-01T14:41:12;27.08;;;19.50;;
25049;SDS011;13046;49.814;9.918;2023-03-01T14:43:47;22.27;;;18.38;;
25049;SDS011;13046;49.814;9.918;2023-03-01T14:46:20;28.92;;;19.98;;
25049;SDS011;13046;49.814;9.918;2023-03-01T14:49:02;25.25;;;18.90;;
25049;SDS011;13046;49.814;9.918;2023-03-01T14:51:52;25.20;;;19.92;;
25049;SDS011;13046;49.814;9.918;2023-03-01T14:54:27;25.27;;;19.15;;
25049;SDS011;13046;49.814;9.918;2023-03-01T14:57:03;28.00;;;19.65;;
25049;SDS011;13046;49.814;9.918;2023-03-01T14:59:28;28.30;;;19.70;;
25049;SDS011;13046;49.814;9.918;2023-03-01T15:01:55;24.20;;;18.20;;
25049;SDS011;13046;49.814;9.918;2023-03-01T15:04:23;28.58;;;20.92;;
25049;SDS011;13046;49.814;9.918;2023-03-01T15:06:53;32.22;;;24.08;;
25049;SDS011;13046;49.814;9.918;2023-03-01T15:09:20;25.38;;;19.52;;
25049;SDS011;13046;49.814;9.918;2023-03-01T15:11:49;22.42;;;17.55;;
25049;SDS011;13046;49.814;9.918;2023-03-01T15:14:25;21.85;;;16.15;;
25049;SDS011;13046;49.814;9.918;2023-03-01T15:17:04;20.95;;;17.02;;
25049;SDS011;13046;49.814;9.918;2023-03-01T15:19:29;22.25;;;16.52;;
25049;SDS011;13046;49.814;9.918;2023-03-01T15:21:55;25.50;;;16.55;;
25049;SDS011;13046;49.814;9.918;2023-03-01T15:24:25;20.35;;;16.42;;
25049;SDS011;13046;49.814;9.918;2023-03-01T15:26:53;20.52;;;16.90;;
25049;SDS011;13046;49.814;9.918;2023-03-01T15:29:23;22.77;;;16.55;;
25049;SDS011;13046;49.814;9.918;2023-03-01T15:32:23;24.95;;;17.60;;
25049;SDS011;13046;49.814;9.918;2023-03-01T15:35:00;21.42;;;17.05;;
25049;SDS011;13046;49.814;9.918;2023-03-01T15:37:47;22.10;;;16.55;;
25049;SDS011;13046;49.814;9.918;2023-03-01T15:40:24;20.30;;;16.33;;
25049;SDS011;13046;49.814;9.918;2023-03-01T15:42:59;23.08;;;17.90;;
25049;SDS011;13046;49.814;9.918;2023-03-01T15:45:27;23.35;;;16.50;;
25049;SDS011;13046;49.814;9.918;2023-03-01T15:47:54;23.55;;;16.95;;
25049;SDS011;13046;49.814;9.918;2023-03-01T15:50:34;26.15;;;17.02;;
25049;SDS011;13046;49.814;9.918;2023-03-01T15:53:06;25.48;;;16.48;;
25049;SDS011;13046;49.814;9.918;2023-03-01T15:55:36;20.75;;;17.10;;
25049;SDS011;13046;49.814;9.918;2023-03-01T15:58:08;22.98;;;18.30;;
25049;SDS011;13046;49.814;9.918;2023-03-01T16:00:40;24.85;;;17.58;;
25049;SDS011;13046;49.814;9.918;2023-03-01T16:03:08;22.90;;;16.95;;
25049;SDS011;13046;49.814;9.918;2023-03-01T16:05:36;20.20;;;15.82;;
25049;SDS011;13046;49.814;9.918;2023-03-01T16:08:03;27.35;;;19.20;;
25049;SDS011;13046;49.814;9.918;2023-03-01T16:10:31;30.13;;;18.98;;
25049;SDS011;13046;49.814;9.918;2023-03-01T16:12:58;54.70;;;32.08;;
25049;SDS011;13046;49.814;9.918;2023-03-01T16:15:26;30.77;;;21.92;;
25049;SDS011;13046;49.814;9.918;2023-03-01T16:17:56;24.63;;;18.13;;
25049;SDS011;13046;49.814;9.918;2023-03-01T16:20:25;27.77;;;19.92;;
25049;SDS011;13046;49.814;9.918;2023-03-01T16:22:52;24.00;;;20.08;;
25049;SDS011;13046;49.814;9.918;2023-03-01T16:25:19;26.77;;;19.15;;
25049;SDS011;13046;49.814;9.918;2023-03-01T16:27:46;30.30;;;20.52;;
25049;SDS011;13046;49.814;9.918;2023-03-01T16:30:14;27.83;;;22.58;;
25049;SDS011;13046;49.814;9.918;2023-03-01T16:32:44;34.30;;;23.33;;
25049;SDS011;13046;49.814;9.918;2023-03-01T16:35:12;30.67;;;19.92;;